createdAt,value
2022-09-20T00:00:07.487Z,97612.00
2022-09-20T00:05:08.332Z,97609.00
2022-09-20T00:10:09.181Z,97603.00
2022-09-20T00:15:10.218Z,97599.00
2022-09-20T00:20:11.098Z,97600.00
2022-09-20T00:25:11.816Z,97594.00
2022-09-20T00:30:13.129Z,97588.00
2022-09-20T00:35:13.855Z,97592.00
2022-09-20T00:40:19.617Z,97591.00
2022-09-20T00:45:29.176Z,97597.00
2022-09-20T00:50:37.265Z,97596.00
2022-09-20T00:55:42.542Z,97602.00
2022-09-20T01:00:44.892Z,97599.00
2022-09-20T01:05:45.830Z,97610.00
2022-09-20T01:10:47.653Z,97602.00
2022-09-20T01:15:49.698Z,97604.00
2022-09-20T01:20:50.805Z,97600.00
2022-09-20T01:30:45.014Z,97612.00
2022-09-20T01:35:49.468Z,97619.00
2022-09-20T01:41:06.943Z,97624.00
2022-09-20T01:46:46.989Z,97615.00
2022-09-20T01:58:27.507Z,97608.00
2022-09-20T02:04:37.382Z,97616.00
2022-09-20T02:11:22.341Z,97602.00
2022-09-20T02:17:03.682Z,97598.00
2022-09-20T02:24:09.442Z,97615.00
2022-09-20T02:31:15.591Z,97613.00
2022-09-20T02:37:08.919Z,97616.00
2022-09-20T02:42:20.801Z,97613.00
2022-09-20T02:47:39.441Z,97608.00
2022-09-20T02:58:27.883Z,97609.00
2022-09-20T03:04:11.324Z,97599.00
2022-09-20T03:09:29.700Z,97597.00
2022-09-20T03:14:39.960Z,97601.00
2022-09-20T03:20:15.039Z,97606.00
2022-09-20T03:26:56.231Z,97609.00
2022-09-20T03:32:13.646Z,97613.00
2022-09-20T03:37:44.359Z,97619.00
2022-09-20T03:42:51.440Z,97627.00
2022-09-20T03:51:42.379Z,97620.00
2022-09-20T03:58:23.586Z,97617.00
2022-09-20T04:05:35.010Z,97624.00
2022-09-20T04:11:21.094Z,97625.00
2022-09-20T04:16:31.700Z,97626.00
2022-09-20T04:21:44.002Z,97633.00
2022-09-20T04:26:49.688Z,97631.00
2022-09-20T04:32:49.058Z,97635.00
2022-09-20T04:37:51.790Z,97631.00
2022-09-20T04:49:51.554Z,97640.00
2022-09-20T04:55:45.662Z,97652.00
2022-09-20T05:01:32.107Z,97658.00
2022-09-20T05:07:38.543Z,97655.00
2022-09-20T05:12:58.240Z,97658.00
2022-09-20T05:22:29.154Z,97663.00
2022-09-20T05:27:44.674Z,97661.00
2022-09-20T05:33:00.205Z,97670.00
2022-09-20T05:39:10.133Z,97672.00
2022-09-20T05:46:58.200Z,97682.00
2022-09-20T05:52:33.116Z,97690.00
2022-09-20T05:58:06.538Z,97683.00
2022-09-20T06:03:47.749Z,97688.00
2022-09-20T06:09:04.603Z,97691.00
2022-09-20T06:14:46.839Z,97699.00
2022-09-20T06:26:51.117Z,97701.00
2022-09-20T06:31:52.815Z,97707.00
2022-09-20T06:37:24.626Z,97714.00
2022-09-20T06:42:27.400Z,97714.00
2022-09-20T06:47:28.289Z,97712.00
2022-09-20T06:52:29.124Z,97705.00
2022-09-20T06:57:35.433Z,97712.00
2022-09-20T07:02:36.231Z,97723.00
2022-09-20T07:07:37.279Z,97721.00
2022-09-20T07:12:38.409Z,97719.00
2022-09-20T07:17:39.177Z,97715.00
2022-09-20T07:22:40.497Z,97723.00
2022-09-20T07:27:41.254Z,97721.00
2022-09-20T07:32:42.005Z,97729.00
2022-09-20T07:37:43.817Z,97735.00
2022-09-20T07:42:45.240Z,97735.00
2022-09-20T07:47:45.986Z,97733.00
2022-09-20T07:52:46.743Z,97738.00
2022-09-20T07:57:47.808Z,97743.00
2022-09-20T08:02:58.258Z,97745.00
2022-09-20T08:08:00.274Z,97744.00
2022-09-20T08:18:33.573Z,97753.00
2022-09-20T08:23:35.533Z,97750.00
2022-09-20T08:28:36.459Z,97760.00
2022-09-20T08:33:37.357Z,97767.00
2022-09-20T08:44:45.042Z,97765.00
2022-09-20T08:49:47.065Z,97747.00
2022-09-20T08:54:47.859Z,97767.00
2022-09-20T08:59:49.585Z,97776.00
2022-09-20T09:04:52.178Z,97775.00
2022-09-20T09:09:55.829Z,97778.00
2022-09-20T09:15:00.270Z,97776.00
2022-09-20T09:20:20.777Z,97780.00
2022-09-20T09:25:33.687Z,97776.00
2022-09-20T09:30:40.972Z,97769.00
2022-09-20T09:35:43.092Z,97771.00
2022-09-20T09:40:59.531Z,97774.00
2022-09-20T09:46:23.909Z,97776.00
2022-09-20T09:51:25.684Z,97769.00
2022-09-20T09:58:09.746Z,97776.00
2022-09-20T10:09:20.840Z,97767.00
2022-09-20T10:19:12.150Z,97767.00
2022-09-20T10:27:53.617Z,97770.00
2022-09-20T10:33:23.350Z,97775.00
2022-09-20T10:38:33.190Z,97769.00
2022-09-20T10:43:51.758Z,97764.00
2022-09-20T10:49:17.353Z,97773.00
2022-09-20T10:54:40.833Z,97777.00
2022-09-20T11:00:19.273Z,97764.00
2022-09-20T11:05:38.526Z,97771.00
2022-09-20T11:11:04.864Z,97769.00
2022-09-20T11:16:13.557Z,97769.00
2022-09-20T11:21:21.229Z,97780.00
2022-09-20T11:26:31.999Z,97782.00
2022-09-20T11:31:46.317Z,97780.00
2022-09-20T11:37:00.027Z,97772.00
2022-09-20T11:42:03.525Z,97767.00
2022-09-20T11:47:56.068Z,97769.00
2022-09-20T11:53:36.501Z,97776.00
2022-09-20T11:58:49.916Z,97779.00
2022-09-20T12:04:04.270Z,97775.00
2022-09-20T12:09:50.985Z,97762.00
2022-09-20T12:14:58.005Z,97765.00
2022-09-20T12:19:58.754Z,97764.00
2022-09-20T12:27:09.840Z,97756.00
2022-09-20T12:32:42.610Z,97766.00
2022-09-20T12:37:43.471Z,97775.00
2022-09-20T12:42:44.424Z,97773.00
2022-09-20T12:47:53.933Z,97782.00
2022-09-20T12:52:56.749Z,97779.00
2022-09-20T12:59:55.273Z,97768.00
2022-09-20T13:04:56.051Z,97758.00
2022-09-20T13:09:56.957Z,97748.00
2022-09-20T13:14:57.992Z,97747.00
2022-09-20T13:19:59.105Z,97759.00
2022-09-20T13:25:03.444Z,97753.00
2022-09-20T13:32:13.847Z,97756.00
2022-09-20T13:37:22.709Z,97753.00
2022-09-20T13:42:23.925Z,97759.00
2022-09-20T13:47:27.997Z,97753.00
2022-09-20T13:52:31.007Z,97751.00
2022-09-20T13:57:31.813Z,97762.00
2022-09-20T14:02:33.905Z,97769.00
2022-09-20T14:07:36.007Z,97761.00
2022-09-20T14:12:37.881Z,97760.00
2022-09-20T14:17:39.118Z,97773.00
2022-09-20T14:22:40.433Z,97776.00
2022-09-20T14:27:41.211Z,97769.00
2022-09-20T14:32:51.008Z,97775.00
2022-09-20T14:37:56.376Z,97769.00
2022-09-20T14:43:00.893Z,97769.00
2022-09-20T14:48:28.865Z,97762.00
2022-09-20T14:53:31.022Z,97758.00
2022-09-20T14:58:32.773Z,97759.00
2022-09-20T15:03:39.127Z,97748.00
2022-09-20T15:08:45.406Z,97741.00
2022-09-20T15:13:46.653Z,97741.00
2022-09-20T15:18:47.420Z,97730.00
2022-09-20T15:23:48.199Z,97732.00
2022-09-20T15:28:49.104Z,97734.00
2022-09-20T15:33:50.225Z,97737.00
2022-09-20T15:38:53.110Z,97729.00
2022-09-20T15:43:54.032Z,97734.00
2022-09-20T15:48:55.572Z,97740.00
2022-09-20T15:53:59.684Z,97736.00
2022-09-20T15:59:03.391Z,97737.00
2022-09-20T16:04:13.519Z,97761.00
2022-09-20T16:09:14.850Z,97759.00
2022-09-20T16:14:15.640Z,97761.00
2022-09-20T16:19:16.408Z,97765.00
2022-09-20T16:24:17.231Z,97769.00
2022-09-20T16:29:18.168Z,97761.00
2022-09-20T16:34:28.791Z,97772.00
2022-09-20T16:39:30.551Z,97773.00
2022-09-20T16:44:33.227Z,97775.00
2022-09-20T16:49:35.506Z,97785.00
2022-09-20T16:54:36.314Z,97780.00
2022-09-20T16:59:37.091Z,97788.00
2022-09-20T17:04:38.291Z,97784.00
2022-09-20T17:09:39.098Z,97789.00
2022-09-20T17:14:39.910Z,97791.00
2022-09-20T17:19:40.688Z,97786.00
2022-09-20T17:24:41.452Z,97790.00
2022-09-20T17:29:42.271Z,97795.00
2022-09-20T17:34:43.161Z,97789.00
2022-09-20T17:39:43.927Z,97793.00
2022-09-20T17:44:44.734Z,97792.00
2022-09-20T17:49:45.441Z,97791.00
2022-09-20T17:54:46.211Z,97797.00
2022-09-20T17:59:46.942Z,97797.00
2022-09-20T18:04:48.833Z,97794.00
2022-09-20T18:09:49.817Z,97800.00
2022-09-20T18:14:50.670Z,97800.00
2022-09-20T18:19:51.406Z,97804.00
2022-09-20T18:24:52.622Z,97816.00
2022-09-20T18:29:53.395Z,97827.00
2022-09-20T18:34:55.504Z,97830.00
2022-09-20T18:39:56.459Z,97836.00
2022-09-20T18:44:58.400Z,97841.00
2022-09-20T18:49:59.133Z,97853.00
2022-09-20T18:55:01.851Z,97855.00
2022-09-20T19:00:04.188Z,97863.00
2022-09-20T19:05:26.259Z,97872.00
2022-09-20T19:11:36.419Z,97872.00
2022-09-20T19:16:37.677Z,97874.00
2022-09-20T19:22:02.329Z,97878.00
2022-09-20T19:27:03.610Z,97891.00
2022-09-20T19:32:05.419Z,97892.00
2022-09-20T19:40:58.016Z,97898.00
2022-09-20T19:49:13.525Z,97908.00
2022-09-20T19:54:15.148Z,97917.00
2022-09-20T19:59:16.621Z,97915.00
2022-09-20T20:04:18.157Z,97912.00
2022-09-20T20:10:29.796Z,97912.00
2022-09-20T20:15:43.555Z,97919.00
2022-09-20T20:20:49.441Z,97919.00
2022-09-20T20:26:42.266Z,97915.00
2022-09-20T20:31:43.127Z,97914.00
2022-09-20T20:36:44.054Z,97907.00
2022-09-20T20:41:51.542Z,97915.00
2022-09-20T20:46:52.377Z,97928.00
2022-09-20T20:51:53.185Z,97932.00
2022-09-20T20:56:53.920Z,97936.00
2022-09-20T21:01:55.471Z,97930.00
2022-09-20T21:06:57.495Z,97940.00
2022-09-20T21:11:58.616Z,97941.00
2022-09-20T21:16:59.363Z,97937.00
2022-09-20T21:22:00.121Z,97935.00
2022-09-20T21:27:03.879Z,97929.00
2022-09-20T21:32:05.113Z,97935.00
2022-09-20T21:37:06.433Z,97938.00
2022-09-20T21:42:07.280Z,97940.00
2022-09-20T21:47:08.764Z,97940.00
2022-09-20T21:52:09.997Z,97942.00
2022-09-20T21:57:12.904Z,97933.00
2022-09-20T22:02:16.235Z,97931.00
2022-09-20T22:07:17.012Z,97940.00
2022-09-20T22:12:18.087Z,97944.00
2022-09-20T22:17:18.804Z,97951.00
2022-09-20T22:22:19.556Z,97950.00
2022-09-20T22:27:20.354Z,97941.00
2022-09-20T22:32:21.132Z,97945.00
2022-09-20T22:37:21.842Z,97947.00
2022-09-20T22:42:22.944Z,97945.00
2022-09-20T22:47:23.685Z,97941.00
2022-09-20T22:52:24.542Z,97948.00
2022-09-20T22:57:25.532Z,97951.00
2022-09-20T23:02:26.293Z,97957.00
2022-09-20T23:07:27.054Z,97961.00
2022-09-20T23:12:28.014Z,97961.00
2022-09-20T23:17:28.773Z,97954.00
2022-09-20T23:22:29.646Z,97955.00
2022-09-20T23:27:30.377Z,97957.00
2022-09-20T23:32:31.198Z,97954.00
2022-09-20T23:37:31.924Z,97949.00
2022-09-20T23:42:32.755Z,97945.00
2022-09-20T23:47:33.507Z,97943.00
2022-09-20T23:52:34.243Z,97948.00
2022-09-20T23:57:34.971Z,97949.00
